BAW816 EGLL-EKCH
Flight info
| Callsign | BAW816 |
|---|---|
| Flight time | 1h 32m |
| Altitude | 39000 |
| Route | BPK6J BPK Q295 SOMVA MAVAS AGISU TALSA P729 TUDLO TUDL4A |
| Aircraft | A320/M-SDE3FGHIRWY/LB1 |
Departure
| Time | 2026-04-26 12:25 |
|---|---|
| Airport | London Heathrow Airport (EGLL) |
Arrival
| Time | 2026-04-26 13:57 |
|---|---|
| Airport | Copenhagen Kastrup Airport (EKCH) |
| Time | Latitude | Longitude | Altitude | Speed | Heading |
|---|---|---|---|---|---|
| 2026-04-26 11:47 | 51.47127 | -0.48616 | 92 ft | 0 kts | 270° |
| 2026-04-26 12:16 | 51.47127 | -0.48596 | 92 ft | 2 kts | 270° |
| 2026-04-26 12:17 | 51.47127 | -0.48572 | 92 ft | 2 kts | 270° |
| 2026-04-26 12:17 | 51.47127 | -0.48548 | 92 ft | 2 kts | 270° |
| 2026-04-26 12:17 | 51.47127 | -0.48525 | 92 ft | 1 kts | 270° |
| 2026-04-26 12:17 | 51.47127 | -0.48508 | 92 ft | 2 kts | 254° |
| 2026-04-26 12:18 | 51.47135 | -0.48488 | 92 ft | 2 kts | 225° |
| 2026-04-26 12:18 | 51.47148 | -0.48474 | 92 ft | 2 kts | 195° |
| 2026-04-26 12:18 | 51.47156 | -0.48472 | 92 ft | 1 kts | 180° |
| 2026-04-26 12:18 | 51.47162 | -0.48473 | 92 ft | 0 kts | 179° |
| 2026-04-26 12:20 | 51.47160 | -0.48473 | 92 ft | 1 kts | 179° |
| 2026-04-26 12:20 | 51.47126 | -0.48472 | 92 ft | 8 kts | 180° |
| 2026-04-26 12:21 | 51.47050 | -0.48472 | 92 ft | 12 kts | 180° |
| 2026-04-26 12:21 | 51.46957 | -0.48471 | 92 ft | 13 kts | 179° |
| 2026-04-26 12:21 | 51.46858 | -0.48469 | 92 ft | 14 kts | 180° |
| 2026-04-26 12:21 | 51.46753 | -0.48468 | 92 ft | 15 kts | 181° |
| 2026-04-26 12:22 | 51.46654 | -0.48469 | 92 ft | 10 kts | 180° |
| 2026-04-26 12:22 | 51.46602 | -0.48468 | 92 ft | 3 kts | 180° |
| 2026-04-26 12:22 | 51.46600 | -0.48468 | 92 ft | 0 kts | 180° |
| 2026-04-26 12:23 | 51.46597 | -0.48468 | 92 ft | 1 kts | 180° |
| 2026-04-26 12:23 | 51.46555 | -0.48468 | 92 ft | 9 kts | 180° |
| 2026-04-26 12:24 | 51.46493 | -0.48467 | 92 ft | 5 kts | 175° |
| 2026-04-26 12:24 | 51.46478 | -0.48409 | 92 ft | 7 kts | 90° |
| 2026-04-26 12:24 | 51.46479 | -0.48157 | 92 ft | 52 kts | 90° |
| 2026-04-26 12:25 | 51.46486 | -0.45647 | 94 ft | 165 kts | 90° |
| 2026-04-26 12:25 | 51.46487 | -0.43744 | 548 ft | 172 kts | 90° |
| 2026-04-26 12:25 | 51.46541 | -0.41833 | 1184 ft | 174 kts | 81° |
| 2026-04-26 12:25 | 51.46951 | -0.40048 | 1848 ft | 174 kts | 60° |
| 2026-04-26 12:26 | 51.47742 | -0.38507 | 2230 ft | 188 kts | 47° |
| 2026-04-26 12:26 | 51.48717 | -0.36956 | 2544 ft | 207 kts | 46° |
| 2026-04-26 12:26 | 51.49754 | -0.35216 | 2927 ft | 224 kts | 49° |
| 2026-04-26 12:26 | 51.50844 | -0.33308 | 3392 ft | 240 kts | 49° |
| 2026-04-26 12:27 | 51.51996 | -0.31278 | 3939 ft | 251 kts | 49° |
| 2026-04-26 12:27 | 51.53141 | -0.29151 | 4534 ft | 261 kts | 52° |
| 2026-04-26 12:27 | 51.54283 | -0.26847 | 5264 ft | 266 kts | 52° |
| 2026-04-26 12:27 | 51.55432 | -0.24533 | 6019 ft | 270 kts | 52° |
| 2026-04-26 12:28 | 51.56605 | -0.22183 | 6776 ft | 273 kts | 51° |
| 2026-04-26 12:28 | 51.57795 | -0.19808 | 7528 ft | 277 kts | 51° |
| 2026-04-26 12:28 | 51.59016 | -0.17373 | 8268 ft | 282 kts | 51° |
| 2026-04-26 12:28 | 51.60238 | -0.14939 | 8991 ft | 286 kts | 51° |
| 2026-04-26 12:29 | 51.61494 | -0.12436 | 9713 ft | 290 kts | 51° |
| 2026-04-26 12:29 | 51.62759 | -0.09912 | 10406 ft | 293 kts | 51° |
| 2026-04-26 12:29 | 51.65411 | -0.04618 | 11221 ft | 320 kts | 51° |
| 2026-04-26 12:30 | 51.66831 | -0.01778 | 11760 ft | 328 kts | 51° |
| 2026-04-26 12:30 | 51.68269 | 0.01101 | 12418 ft | 331 kts | 50° |
| 2026-04-26 12:30 | 51.69704 | 0.03979 | 13039 ft | 334 kts | 50° |
| 2026-04-26 12:31 | 51.72636 | 0.09867 | 14223 ft | 340 kts | 50° |
| 2026-04-26 12:31 | 51.74124 | 0.12862 | 14816 ft | 343 kts | 50° |
| 2026-04-26 12:31 | 51.75617 | 0.15868 | 15366 ft | 347 kts | 50° |
| 2026-04-26 12:31 | 51.76948 | 0.19077 | 15872 ft | 352 kts | 63° |
| 2026-04-26 12:32 | 51.77781 | 0.22843 | 16402 ft | 356 kts | 78° |
| 2026-04-26 12:32 | 51.78162 | 0.26772 | 16921 ft | 359 kts | 82° |
| 2026-04-26 12:32 | 51.78752 | 0.34813 | 17909 ft | 366 kts | 83° |
| 2026-04-26 12:33 | 51.79060 | 0.38930 | 18393 ft | 370 kts | 82° |
| 2026-04-26 12:33 | 51.79378 | 0.43055 | 18767 ft | 376 kts | 82° |
| 2026-04-26 12:33 | 51.79708 | 0.47269 | 19231 ft | 380 kts | 82° |
| 2026-04-26 12:33 | 51.80038 | 0.51476 | 19719 ft | 382 kts | 82° |
| 2026-04-26 12:34 | 51.80374 | 0.55764 | 20187 ft | 385 kts | 82° |
| 2026-04-26 12:34 | 51.80710 | 0.60046 | 20637 ft | 388 kts | 81° |
| 2026-04-26 12:34 | 51.81195 | 0.64314 | 21084 ft | 390 kts | 75° |
| 2026-04-26 12:34 | 51.81977 | 0.68522 | 21521 ft | 392 kts | 69° |
| 2026-04-26 12:35 | 51.83003 | 0.72670 | 21959 ft | 394 kts | 66° |
| 2026-04-26 12:35 | 51.84089 | 0.76787 | 22370 ft | 397 kts | 65° |
| 2026-04-26 12:35 | 51.85185 | 0.80934 | 22774 ft | 399 kts | 65° |
| 2026-04-26 12:35 | 51.86179 | 0.84734 | 23141 ft | 402 kts | 65° |
| 2026-04-26 12:36 | 51.87274 | 0.88954 | 23523 ft | 405 kts | 65° |
| 2026-04-26 12:36 | 51.88354 | 0.93139 | 23901 ft | 407 kts | 65° |
| 2026-04-26 12:36 | 51.89452 | 0.97413 | 24275 ft | 410 kts | 65° |
| 2026-04-26 12:36 | 51.90536 | 1.01639 | 24656 ft | 412 kts | 65° |
| 2026-04-26 12:37 | 51.91641 | 1.05959 | 25041 ft | 415 kts | 65° |
| 2026-04-26 12:37 | 51.92738 | 1.10258 | 25401 ft | 417 kts | 65° |
| 2026-04-26 12:37 | 51.93847 | 1.14610 | 25770 ft | 419 kts | 65° |
| 2026-04-26 12:37 | 51.94958 | 1.18981 | 26112 ft | 422 kts | 65° |
| 2026-04-26 12:38 | 51.96069 | 1.23355 | 26455 ft | 425 kts | 65° |
| 2026-04-26 12:38 | 51.97205 | 1.27842 | 26783 ft | 427 kts | 65° |
| 2026-04-26 12:38 | 51.98328 | 1.32281 | 27126 ft | 430 kts | 65° |
| 2026-04-26 12:38 | 51.99455 | 1.36745 | 27448 ft | 432 kts | 65° |
| 2026-04-26 12:39 | 52.00600 | 1.41291 | 27766 ft | 435 kts | 65° |
| 2026-04-26 12:39 | 52.01742 | 1.45830 | 28078 ft | 437 kts | 65° |
| 2026-04-26 12:39 | 52.02891 | 1.50408 | 28380 ft | 439 kts | 65° |
| 2026-04-26 12:39 | 52.04036 | 1.54985 | 28697 ft | 442 kts | 65° |
| 2026-04-26 12:40 | 52.05194 | 1.59618 | 28991 ft | 444 kts | 64° |
| 2026-04-26 12:40 | 52.06348 | 1.64253 | 29300 ft | 446 kts | 64° |
| 2026-04-26 12:40 | 52.07500 | 1.68884 | 29590 ft | 448 kts | 65° |
| 2026-04-26 12:40 | 52.08682 | 1.73647 | 29882 ft | 449 kts | 65° |
| 2026-04-26 12:41 | 52.09853 | 1.78371 | 30154 ft | 451 kts | 65° |
| 2026-04-26 12:41 | 52.11033 | 1.83146 | 30435 ft | 453 kts | 65° |
| 2026-04-26 12:41 | 52.12091 | 1.87437 | 30683 ft | 455 kts | 65° |
| 2026-04-26 12:41 | 52.13271 | 1.92223 | 30949 ft | 456 kts | 65° |
| 2026-04-26 12:42 | 52.14464 | 1.97078 | 31197 ft | 458 kts | 65° |
| 2026-04-26 12:42 | 52.15654 | 2.01931 | 31440 ft | 460 kts | 65° |
| 2026-04-26 12:42 | 52.16836 | 2.06768 | 31718 ft | 461 kts | 65° |
| 2026-04-26 12:42 | 52.18020 | 2.11625 | 32063 ft | 460 kts | 65° |
| 2026-04-26 12:43 | 52.19190 | 2.16434 | 32420 ft | 459 kts | 65° |
| 2026-04-26 12:43 | 52.20374 | 2.21310 | 32750 ft | 458 kts | 65° |
| 2026-04-26 12:43 | 52.21543 | 2.26137 | 33058 ft | 458 kts | 65° |
| 2026-04-26 12:43 | 52.22712 | 2.30965 | 33362 ft | 457 kts | 65° |
| 2026-04-26 12:44 | 52.23869 | 2.35764 | 33648 ft | 457 kts | 65° |
| 2026-04-26 12:44 | 52.25035 | 2.40602 | 33899 ft | 458 kts | 64° |
| 2026-04-26 12:44 | 52.26195 | 2.45432 | 34115 ft | 459 kts | 65° |
| 2026-04-26 12:44 | 52.27345 | 2.50230 | 34334 ft | 460 kts | 64° |
| 2026-04-26 12:45 | 52.28503 | 2.55076 | 34568 ft | 460 kts | 65° |
| 2026-04-26 12:45 | 52.29669 | 2.59964 | 34781 ft | 461 kts | 65° |
| 2026-04-26 12:45 | 52.30770 | 2.64867 | 34943 ft | 463 kts | 68° |
| 2026-04-26 12:45 | 52.31726 | 2.69917 | 35109 ft | 465 kts | 71° |
| 2026-04-26 12:46 | 52.32629 | 2.75015 | 35275 ft | 465 kts | 71° |
| 2026-04-26 12:46 | 52.34439 | 2.85423 | 35336 ft | 466 kts | 71° |
| 2026-04-26 12:47 | 52.36166 | 2.95350 | 35335 ft | 465 kts | 71° |
| 2026-04-26 12:47 | 52.38001 | 3.05550 | 35346 ft | 463 kts | 68° |
| 2026-04-26 12:48 | 52.40412 | 3.15223 | 35354 ft | 459 kts | 60° |
| 2026-04-26 12:48 | 52.43549 | 3.24240 | 35358 ft | 455 kts | 52° |
| 2026-04-26 12:49 | 52.47269 | 3.32518 | 35361 ft | 453 kts | 47° |
| 2026-04-26 12:49 | 52.51122 | 3.40630 | 35358 ft | 453 kts | 47° |
| 2026-04-26 12:50 | 52.54985 | 3.48811 | 35358 ft | 453 kts | 47° |
| 2026-04-26 12:50 | 52.58814 | 3.56973 | 35359 ft | 452 kts | 47° |
| 2026-04-26 12:51 | 52.62619 | 3.65121 | 35363 ft | 452 kts | 48° |
| 2026-04-26 12:51 | 52.66493 | 3.73446 | 35366 ft | 453 kts | 48° |
| 2026-04-26 12:52 | 52.70357 | 3.81774 | 35368 ft | 453 kts | 48° |
| 2026-04-26 12:52 | 52.73952 | 3.89553 | 35370 ft | 453 kts | 48° |
| 2026-04-26 12:53 | 52.77763 | 3.97825 | 35371 ft | 454 kts | 48° |
| 2026-04-26 12:53 | 52.81576 | 4.06127 | 35369 ft | 453 kts | 48° |
| 2026-04-26 12:54 | 52.85356 | 4.14383 | 35369 ft | 453 kts | 48° |
| 2026-04-26 12:54 | 52.89124 | 4.22639 | 35367 ft | 453 kts | 48° |
| 2026-04-26 12:55 | 52.92918 | 4.30978 | 35369 ft | 453 kts | 49° |
| 2026-04-26 12:55 | 52.96696 | 4.39311 | 35368 ft | 453 kts | 49° |
| 2026-04-26 12:56 | 53.00460 | 4.47646 | 35372 ft | 453 kts | 49° |
| 2026-04-26 12:56 | 53.04205 | 4.55963 | 35369 ft | 453 kts | 49° |
| 2026-04-26 12:57 | 53.07953 | 4.64311 | 35370 ft | 453 kts | 49° |
| 2026-04-26 12:57 | 53.11750 | 4.72798 | 35371 ft | 454 kts | 50° |
| 2026-04-26 12:58 | 53.17487 | 4.85676 | 35360 ft | 454 kts | 50° |
| 2026-04-26 12:58 | 53.20795 | 4.93133 | 35360 ft | 454 kts | 50° |
| 2026-04-26 12:59 | 53.24596 | 5.01727 | 35369 ft | 454 kts | 50° |
| 2026-04-26 12:59 | 53.28217 | 5.09939 | 35377 ft | 453 kts | 50° |
| 2026-04-26 13:00 | 53.31919 | 5.18362 | 35378 ft | 454 kts | 50° |
| 2026-04-26 13:00 | 53.35660 | 5.26910 | 35375 ft | 454 kts | 50° |
| 2026-04-26 13:01 | 53.39358 | 5.35384 | 35368 ft | 454 kts | 50° |
| 2026-04-26 13:01 | 53.43076 | 5.43934 | 35368 ft | 455 kts | 50° |
| 2026-04-26 13:02 | 53.46780 | 5.52479 | 35366 ft | 454 kts | 50° |
| 2026-04-26 13:02 | 53.50485 | 5.61054 | 35369 ft | 455 kts | 50° |
| 2026-04-26 13:03 | 53.54186 | 5.69648 | 35370 ft | 455 kts | 51° |
| 2026-04-26 13:03 | 53.57880 | 5.78257 | 35370 ft | 455 kts | 51° |
| 2026-04-26 13:04 | 53.61604 | 5.86969 | 35372 ft | 455 kts | 51° |
| 2026-04-26 13:04 | 53.65286 | 5.95611 | 35374 ft | 455 kts | 51° |
| 2026-04-26 13:05 | 53.68972 | 6.04290 | 35368 ft | 456 kts | 51° |
| 2026-04-26 13:05 | 53.72636 | 6.12949 | 35364 ft | 456 kts | 51° |
| 2026-04-26 13:06 | 53.76314 | 6.21671 | 35365 ft | 456 kts | 51° |
| 2026-04-26 13:06 | 53.79953 | 6.30329 | 35367 ft | 456 kts | 51° |
| 2026-04-26 13:07 | 53.83615 | 6.39075 | 35369 ft | 456 kts | 51° |
| 2026-04-26 13:07 | 53.87268 | 6.47832 | 35367 ft | 456 kts | 51° |
| 2026-04-26 13:08 | 53.90877 | 6.56580 | 35361 ft | 457 kts | 51° |
| 2026-04-26 13:08 | 53.94474 | 6.65410 | 35358 ft | 457 kts | 52° |
| 2026-04-26 13:09 | 53.98120 | 6.74388 | 35358 ft | 457 kts | 52° |
| 2026-04-26 13:09 | 54.01756 | 6.83369 | 35355 ft | 457 kts | 52° |
| 2026-04-26 13:10 | 54.05357 | 6.92297 | 35354 ft | 456 kts | 52° |
| 2026-04-26 13:10 | 54.08936 | 7.01199 | 35352 ft | 456 kts | 52° |
| 2026-04-26 13:11 | 54.12537 | 7.10185 | 35351 ft | 457 kts | 52° |
| 2026-04-26 13:11 | 54.16124 | 7.19169 | 35353 ft | 458 kts | 52° |
| 2026-04-26 13:12 | 54.19693 | 7.28144 | 35359 ft | 458 kts | 52° |
| 2026-04-26 13:12 | 54.23238 | 7.37091 | 35360 ft | 458 kts | 52° |
| 2026-04-26 13:13 | 54.26788 | 7.46082 | 35357 ft | 457 kts | 52° |
| 2026-04-26 13:13 | 54.30340 | 7.55105 | 35355 ft | 458 kts | 52° |
| 2026-04-26 13:14 | 54.33875 | 7.64117 | 35354 ft | 458 kts | 52° |
| 2026-04-26 13:14 | 54.37423 | 7.73203 | 35351 ft | 459 kts | 53° |
| 2026-04-26 13:15 | 54.40877 | 7.82079 | 35352 ft | 459 kts | 53° |
| 2026-04-26 13:15 | 54.44331 | 7.90986 | 35353 ft | 459 kts | 53° |
| 2026-04-26 13:16 | 54.47133 | 7.98233 | 35355 ft | 459 kts | 53° |
| 2026-04-26 13:16 | 54.50672 | 8.07416 | 35353 ft | 459 kts | 53° |
| 2026-04-26 13:17 | 54.55767 | 8.20699 | 35352 ft | 460 kts | 53° |
| 2026-04-26 13:18 | 54.61018 | 8.34468 | 35345 ft | 459 kts | 53° |
| 2026-04-26 13:19 | 54.66256 | 8.48273 | 35340 ft | 459 kts | 53° |
| 2026-04-26 13:19 | 54.69725 | 8.57459 | 35340 ft | 459 kts | 53° |
| 2026-04-26 13:20 | 54.73201 | 8.66699 | 35337 ft | 459 kts | 53° |
| 2026-04-26 13:20 | 54.76707 | 8.76051 | 35332 ft | 460 kts | 53° |
| 2026-04-26 13:21 | 54.80233 | 8.85498 | 35329 ft | 459 kts | 53° |
| 2026-04-26 13:21 | 54.82899 | 8.92661 | 35322 ft | 459 kts | 53° |
| 2026-04-26 13:22 | 54.86377 | 9.02045 | 35322 ft | 459 kts | 53° |
| 2026-04-26 13:22 | 54.89664 | 9.10941 | 35323 ft | 459 kts | 53° |
| 2026-04-26 13:23 | 54.93091 | 9.20247 | 35324 ft | 459 kts | 53° |
| 2026-04-26 13:23 | 54.96504 | 9.29551 | 35323 ft | 460 kts | 53° |
| 2026-04-26 13:24 | 54.99957 | 9.39005 | 34773 ft | 460 kts | 53° |
| 2026-04-26 13:24 | 55.01651 | 9.43658 | 34128 ft | 460 kts | 53° |
| 2026-04-26 13:24 | 55.03365 | 9.48372 | 33435 ft | 461 kts | 53° |
| 2026-04-26 13:24 | 55.05048 | 9.53012 | 32727 ft | 462 kts | 53° |
| 2026-04-26 13:25 | 55.06768 | 9.57766 | 31989 ft | 463 kts | 53° |
| 2026-04-26 13:25 | 55.08440 | 9.62489 | 31260 ft | 465 kts | 55° |
| 2026-04-26 13:25 | 55.09971 | 9.67484 | 30701 ft | 463 kts | 60° |
| 2026-04-26 13:25 | 55.11277 | 9.72591 | 30232 ft | 459 kts | 64° |
| 2026-04-26 13:26 | 55.12361 | 9.77797 | 29785 ft | 455 kts | 68° |
| 2026-04-26 13:26 | 55.13311 | 9.83016 | 29279 ft | 451 kts | 69° |
| 2026-04-26 13:26 | 55.14195 | 9.88028 | 28798 ft | 447 kts | 69° |
| 2026-04-26 13:26 | 55.14986 | 9.92537 | 28376 ft | 443 kts | 69° |
| 2026-04-26 13:27 | 55.15890 | 9.97673 | 27899 ft | 439 kts | 69° |
| 2026-04-26 13:27 | 55.16792 | 10.02796 | 27424 ft | 435 kts | 69° |
| 2026-04-26 13:27 | 55.17674 | 10.07794 | 26957 ft | 431 kts | 69° |
| 2026-04-26 13:27 | 55.18480 | 10.12373 | 26531 ft | 427 kts | 69° |
| 2026-04-26 13:28 | 55.19328 | 10.17197 | 26080 ft | 423 kts | 69° |
| 2026-04-26 13:28 | 55.20189 | 10.22106 | 25618 ft | 420 kts | 69° |
| 2026-04-26 13:28 | 55.21053 | 10.27045 | 25155 ft | 416 kts | 69° |
| 2026-04-26 13:28 | 55.21856 | 10.31636 | 24723 ft | 413 kts | 69° |
| 2026-04-26 13:29 | 55.22635 | 10.36106 | 24298 ft | 410 kts | 68° |
| 2026-04-26 13:29 | 55.23181 | 10.39248 | 23997 ft | 408 kts | 68° |
| 2026-04-26 13:29 | 55.24251 | 10.45418 | 23404 ft | 404 kts | 68° |
| 2026-04-26 13:29 | 55.25063 | 10.50118 | 22940 ft | 402 kts | 68° |
| 2026-04-26 13:30 | 55.25861 | 10.54750 | 22481 ft | 400 kts | 68° |
| 2026-04-26 13:30 | 55.26658 | 10.59396 | 22020 ft | 398 kts | 68° |
| 2026-04-26 13:30 | 55.27448 | 10.64010 | 21565 ft | 396 kts | 68° |
| 2026-04-26 13:30 | 55.28244 | 10.68638 | 21103 ft | 405 kts | 69° |
| 2026-04-26 13:31 | 55.29104 | 10.73591 | 20597 ft | 418 kts | 69° |
| 2026-04-26 13:31 | 55.29932 | 10.78414 | 20115 ft | 418 kts | 69° |
| 2026-04-26 13:31 | 55.30751 | 10.83227 | 19640 ft | 415 kts | 69° |
| 2026-04-26 13:31 | 55.31579 | 10.88104 | 19174 ft | 411 kts | 68° |
| 2026-04-26 13:32 | 55.32356 | 10.92695 | 18701 ft | 406 kts | 68° |
| 2026-04-26 13:32 | 55.33141 | 10.97353 | 17912 ft | 397 kts | 68° |
| 2026-04-26 13:32 | 55.33918 | 11.01981 | 16833 ft | 394 kts | 68° |
| 2026-04-26 13:32 | 55.34674 | 11.06519 | 15796 ft | 388 kts | 68° |
| 2026-04-26 13:33 | 55.35414 | 11.10969 | 14803 ft | 384 kts | 68° |
| 2026-04-26 13:33 | 55.36157 | 11.15447 | 14113 ft | 383 kts | 69° |
| 2026-04-26 13:33 | 55.36889 | 11.19889 | 13670 ft | 378 kts | 68° |
| 2026-04-26 13:33 | 55.37619 | 11.24320 | 13267 ft | 372 kts | 69° |
| 2026-04-26 13:34 | 55.38329 | 11.28647 | 12842 ft | 368 kts | 69° |
| 2026-04-26 13:34 | 55.39035 | 11.32948 | 12388 ft | 365 kts | 69° |
| 2026-04-26 13:34 | 55.39738 | 11.37245 | 11952 ft | 362 kts | 69° |
| 2026-04-26 13:34 | 55.40194 | 11.40040 | 11664 ft | 360 kts | 69° |
| 2026-04-26 13:35 | 55.41107 | 11.45640 | 11060 ft | 356 kts | 69° |
| 2026-04-26 13:35 | 55.41783 | 11.49814 | 10620 ft | 353 kts | 69° |
| 2026-04-26 13:35 | 55.42451 | 11.53943 | 10316 ft | 351 kts | 69° |
| 2026-04-26 13:35 | 55.43110 | 11.58027 | 9900 ft | 348 kts | 69° |
| 2026-04-26 13:36 | 55.43761 | 11.62111 | 9493 ft | 346 kts | 71° |
| 2026-04-26 13:36 | 55.44251 | 11.66283 | 9075 ft | 346 kts | 76° |
| 2026-04-26 13:36 | 55.44649 | 11.70429 | 8663 ft | 343 kts | 77° |
| 2026-04-26 13:36 | 55.45036 | 11.74649 | 8266 ft | 340 kts | 78° |
| 2026-04-26 13:37 | 55.45382 | 11.78440 | 7951 ft | 334 kts | 78° |
| 2026-04-26 13:37 | 55.45754 | 11.82511 | 7600 ft | 330 kts | 78° |
| 2026-04-26 13:37 | 55.46104 | 11.86322 | 7272 ft | 325 kts | 78° |
| 2026-04-26 13:37 | 55.46463 | 11.90229 | 6946 ft | 320 kts | 78° |
| 2026-04-26 13:38 | 55.46813 | 11.94052 | 6612 ft | 316 kts | 78° |
| 2026-04-26 13:38 | 55.47161 | 11.97864 | 6281 ft | 311 kts | 78° |
| 2026-04-26 13:38 | 55.47500 | 12.01578 | 6001 ft | 306 kts | 78° |
| 2026-04-26 13:38 | 55.47836 | 12.05276 | 5693 ft | 302 kts | 78° |
| 2026-04-26 13:39 | 55.48162 | 12.08884 | 5385 ft | 298 kts | 78° |
| 2026-04-26 13:39 | 55.48484 | 12.12460 | 5109 ft | 293 kts | 78° |
| 2026-04-26 13:39 | 55.48798 | 12.15949 | 4791 ft | 285 kts | 78° |
| 2026-04-26 13:39 | 55.49100 | 12.19334 | 4331 ft | 276 kts | 78° |
| 2026-04-26 13:40 | 55.49383 | 12.22585 | 4065 ft | 267 kts | 81° |
| 2026-04-26 13:40 | 55.49291 | 12.25798 | 3977 ft | 260 kts | 100° |
| 2026-04-26 13:40 | 55.48823 | 12.28861 | 3742 ft | 255 kts | 105° |
| 2026-04-26 13:40 | 55.48309 | 12.31783 | 3468 ft | 247 kts | 105° |
| 2026-04-26 13:41 | 55.47807 | 12.34628 | 3213 ft | 240 kts | 105° |
| 2026-04-26 13:41 | 55.47331 | 12.37394 | 2963 ft | 234 kts | 104° |
| 2026-04-26 13:41 | 55.47064 | 12.40166 | 2680 ft | 226 kts | 79° |
| 2026-04-26 13:41 | 55.47615 | 12.42632 | 2410 ft | 213 kts | 46° |
| 2026-04-26 13:42 | 55.48656 | 12.44377 | 2162 ft | 204 kts | 34° |
| 2026-04-26 13:42 | 55.49764 | 12.45856 | 2001 ft | 193 kts | 34° |
| 2026-04-26 13:42 | 55.50762 | 12.47270 | 1986 ft | 180 kts | 36° |
| 2026-04-26 13:42 | 55.51714 | 12.48707 | 2010 ft | 176 kts | 36° |
| 2026-04-26 13:43 | 55.52594 | 12.50077 | 1756 ft | 163 kts | 37° |
| 2026-04-26 13:43 | 55.53398 | 12.51336 | 1566 ft | 150 kts | 36° |
| 2026-04-26 13:43 | 55.54150 | 12.52507 | 1337 ft | 138 kts | 36° |
| 2026-04-26 13:43 | 55.54864 | 12.53612 | 1162 ft | 135 kts | 36° |
| 2026-04-26 13:44 | 55.55570 | 12.54702 | 982 ft | 137 kts | 36° |
| 2026-04-26 13:44 | 55.56281 | 12.55806 | 816 ft | 136 kts | 36° |
| 2026-04-26 13:44 | 55.56994 | 12.56916 | 599 ft | 138 kts | 37° |
| 2026-04-26 13:44 | 55.57713 | 12.58053 | 456 ft | 139 kts | 36° |
| 2026-04-26 13:45 | 55.58445 | 12.59175 | 244 ft | 138 kts | 36° |
| 2026-04-26 13:45 | 55.59156 | 12.60264 | 38 ft | 135 kts | 36° |
| 2026-04-26 13:45 | 55.59930 | 12.61432 | 397 ft | 150 kts | 34° |
| 2026-04-26 13:45 | 55.60758 | 12.62633 | 922 ft | 162 kts | 34° |
| 2026-04-26 13:46 | 55.61668 | 12.63938 | 1552 ft | 177 kts | 32° |
| 2026-04-26 13:46 | 55.62764 | 12.64722 | 2194 ft | 172 kts | 360° |
| 2026-04-26 13:46 | 55.63919 | 12.64241 | 2770 ft | 176 kts | 331° |
| 2026-04-26 13:46 | 55.64978 | 12.62901 | 2920 ft | 200 kts | 313° |
| 2026-04-26 13:47 | 55.65874 | 12.60943 | 2961 ft | 204 kts | 306° |
| 2026-04-26 13:47 | 55.66687 | 12.58899 | 2974 ft | 204 kts | 305° |
| 2026-04-26 13:47 | 55.67489 | 12.56827 | 2987 ft | 204 kts | 305° |
| 2026-04-26 13:47 | 55.68241 | 12.54706 | 2982 ft | 205 kts | 292° |
| 2026-04-26 13:48 | 55.68372 | 12.52197 | 2980 ft | 211 kts | 257° |
| 2026-04-26 13:48 | 55.67617 | 12.49934 | 2997 ft | 219 kts | 225° |
| 2026-04-26 13:48 | 55.66408 | 12.48267 | 2995 ft | 221 kts | 220° |
| 2026-04-26 13:48 | 55.65169 | 12.46625 | 2991 ft | 226 kts | 220° |
| 2026-04-26 13:49 | 55.63899 | 12.44932 | 2992 ft | 230 kts | 220° |
| 2026-04-26 13:49 | 55.62619 | 12.43233 | 2993 ft | 230 kts | 220° |
| 2026-04-26 13:49 | 55.61340 | 12.41539 | 2994 ft | 231 kts | 219° |
| 2026-04-26 13:49 | 55.60031 | 12.39866 | 2994 ft | 230 kts | 219° |
| 2026-04-26 13:50 | 55.58775 | 12.38114 | 2994 ft | 229 kts | 223° |
| 2026-04-26 13:50 | 55.57569 | 12.36308 | 2995 ft | 229 kts | 223° |
| 2026-04-26 13:50 | 55.56352 | 12.34472 | 2994 ft | 228 kts | 223° |
| 2026-04-26 13:50 | 55.55155 | 12.32652 | 2994 ft | 228 kts | 224° |
| 2026-04-26 13:51 | 55.53952 | 12.30814 | 2994 ft | 228 kts | 224° |
| 2026-04-26 13:51 | 55.52759 | 12.28988 | 2993 ft | 229 kts | 223° |
| 2026-04-26 13:51 | 55.51415 | 12.27526 | 2746 ft | 235 kts | 194° |
| 2026-04-26 13:51 | 55.49816 | 12.27752 | 2627 ft | 233 kts | 155° |
| 2026-04-26 13:52 | 55.48620 | 12.29508 | 2519 ft | 225 kts | 119° |
| 2026-04-26 13:52 | 55.48076 | 12.32012 | 2444 ft | 215 kts | 102° |
| 2026-04-26 13:52 | 55.47707 | 12.34545 | 2376 ft | 213 kts | 102° |
| 2026-04-26 13:52 | 55.47336 | 12.37053 | 2304 ft | 213 kts | 102° |
| 2026-04-26 13:53 | 55.46991 | 12.39579 | 2219 ft | 211 kts | 89° |
| 2026-04-26 13:53 | 55.47315 | 12.42011 | 2126 ft | 204 kts | 52° |
| 2026-04-26 13:53 | 55.48262 | 12.43809 | 2066 ft | 200 kts | 34° |
| 2026-04-26 13:53 | 55.49360 | 12.45287 | 2002 ft | 199 kts | 33° |
| 2026-04-26 13:54 | 55.50459 | 12.46812 | 1996 ft | 199 kts | 36° |
| 2026-04-26 13:54 | 55.51503 | 12.48377 | 1968 ft | 196 kts | 37° |
| 2026-04-26 13:54 | 55.52514 | 12.49951 | 1786 ft | 193 kts | 37° |
| 2026-04-26 13:55 | 55.54416 | 12.52920 | 1313 ft | 175 kts | 36° |
| 2026-04-26 13:55 | 55.55016 | 12.53848 | 1135 ft | 172 kts | 37° |
| 2026-04-26 13:55 | 55.56941 | 12.56846 | 652 ft | 146 kts | 37° |
| 2026-04-26 13:56 | 55.57675 | 12.57976 | 456 ft | 136 kts | 36° |
| 2026-04-26 13:56 | 55.58395 | 12.59087 | 271 ft | 136 kts | 36° |
| 2026-04-26 13:56 | 55.59105 | 12.60185 | 80 ft | 136 kts | 36° |
| 2026-04-26 13:56 | 55.59793 | 12.61256 | 20 ft | 125 kts | 36° |
| 2026-04-26 13:57 | 55.60356 | 12.62110 | 20 ft | 82 kts | 40° |
| 2026-04-26 13:57 | 55.60685 | 12.62617 | 21 ft | 51 kts | 41° |
| 2026-04-26 13:57 | 55.60889 | 12.62935 | 22 ft | 36 kts | 41° |
| 2026-04-26 13:57 | 55.61068 | 12.63213 | 22 ft | 28 kts | 40° |
| 2026-04-26 13:58 | 55.61164 | 12.63334 | 22 ft | 15 kts | 9° |
| 2026-04-26 13:58 | 55.61243 | 12.63327 | 23 ft | 10 kts | 354° |
| 2026-04-26 13:58 | 55.61318 | 12.63317 | 23 ft | 11 kts | 356° |
| 2026-04-26 13:58 | 55.61395 | 12.63337 | 23 ft | 12 kts | 36° |
| 2026-04-26 13:59 | 55.61463 | 12.63441 | 23 ft | 13 kts | 40° |
| 2026-04-26 13:59 | 55.61537 | 12.63555 | 23 ft | 14 kts | 40° |
| 2026-04-26 13:59 | 55.61618 | 12.63680 | 23 ft | 15 kts | 41° |
| 2026-04-26 14:00 | 55.61894 | 12.64092 | 22 ft | 18 kts | 25° |
| 2026-04-26 14:00 | 55.62014 | 12.64191 | 22 ft | 19 kts | 25° |
| 2026-04-26 14:00 | 55.62096 | 12.64259 | 21 ft | 19 kts | 25° |
| 2026-04-26 14:01 | 55.62230 | 12.64370 | 21 ft | 12 kts | 26° |
| 2026-04-26 14:01 | 55.62275 | 12.64502 | 21 ft | 13 kts | 65° |
| 2026-04-26 14:01 | 55.62315 | 12.64665 | 21 ft | 15 kts | 65° |
| 2026-04-26 14:01 | 55.62354 | 12.64846 | 20 ft | 15 kts | 95° |
| 2026-04-26 14:02 | 55.62299 | 12.65014 | 20 ft | 10 kts | 123° |
| 2026-04-26 14:02 | 55.62285 | 12.65051 | 20 ft | 0 kts | 123° |
| 2026-04-26 14:04 | 55.62274 | 12.65082 | 20 ft | 7 kts | 123° |
| 2026-04-26 14:04 | 55.62291 | 12.65176 | 19 ft | 10 kts | 50° |
| 2026-04-26 14:05 | 55.62362 | 12.65202 | 19 ft | 11 kts | 356° |
| 2026-04-26 14:05 | 55.62435 | 12.65196 | 19 ft | 5 kts | 358° |
| 2026-04-26 14:05 | 55.62480 | 12.65186 | 19 ft | 7 kts | 352° |
| 2026-04-26 14:05 | 55.62536 | 12.65181 | 19 ft | 8 kts | 359° |
| 2026-04-26 14:06 | 55.62604 | 12.65179 | 19 ft | 10 kts | 4° |
| 2026-04-26 14:06 | 55.62660 | 12.65187 | 18 ft | 4 kts | 358° |
| 2026-04-26 14:06 | 55.62683 | 12.65154 | 19 ft | 5 kts | 295° |
| 2026-04-26 14:06 | 55.62694 | 12.65102 | 19 ft | 0 kts | 289° |
| 2026-04-26 14:07 | 55.62696 | 12.65092 | 19 ft | 1 kts | 288° |
| 2026-04-26 14:07 | 55.62697 | 12.65084 | 19 ft | 0 kts | 289° |
| 2026-04-26 14:07 | 55.62698 | 12.65083 | 19 ft | 0 kts | 289° |